Time;durP1;ratioP1;P1;durP2;ratioP2;P2;SDS_P1;SDS_P2;PMS_P1;PMS_P2;Temp;Humidity;BMP_temperature;BMP_pressure;BME280_temperature;BME280_humidity;BME280_pressure;Samples;Min_cycle;Max_cycle;Signal;HPM_P1;HPM_P2
2021/01/06 00:01:44;;;;;;;9.63;5.32;;;4.00;99.90;;;;;;5097442;28;20097;-74
2021/01/06 00:04:10;;;;;;;11.30;5.07;;;4.00;99.90;;;;;;5102008;28;20139;-71
2021/01/06 00:06:37;;;;;;;10.35;5.45;;;4.10;99.90;;;;;;5096337;28;20139;-72
2021/01/06 00:09:05;;;;;;;10.88;5.07;;;4.10;99.90;;;;;;5104133;28;20155;-71
2021/01/06 00:11:38;;;;;;;9.90;5.47;;;3.90;99.90;;;;;;5102697;28;20036;-72
2021/01/06 00:14:14;;;;;;;11.05;5.85;;;4.00;99.90;;;;;;5103682;28;20075;-72
2021/01/06 00:16:42;;;;;;;10.63;5.30;;;3.90;99.90;;;;;;5102045;28;20083;-72
2021/01/06 00:19:12;;;;;;;14.32;5.90;;;3.90;99.90;;;;;;5098065;28;20106;-71
2021/01/06 00:21:41;;;;;;;11.13;5.82;;;4.00;99.90;;;;;;5101839;28;20146;-75
2021/01/06 00:24:07;;;;;;;9.93;4.85;;;4.00;99.90;;;;;;5104005;28;20079;-77
2021/01/06 00:26:35;;;;;;;11.70;5.30;;;4.00;99.90;;;;;;5097605;28;20052;-74
2021/01/06 00:29:01;;;;;;;11.15;5.45;;;3.90;99.90;;;;;;5102047;28;20143;-72
2021/01/06 00:31:27;;;;;;;9.85;5.50;;;4.00;99.90;;;;;;5100742;28;20044;-73
2021/01/06 00:33:53;;;;;;;9.40;5.47;;;4.10;99.90;;;;;;5106642;28;20543;-74
2021/01/06 00:36:21;;;;;;;12.85;5.88;;;3.90;99.90;;;;;;5097390;28;20502;-74
2021/01/06 00:38:51;;;;;;;11.93;5.45;;;3.90;99.90;;;;;;5101216;28;20506;-73
2021/01/06 00:41:31;;;;;;;12.40;5.50;;;4.00;99.90;;;;;;5098719;28;20055;-76
2021/01/06 00:43:58;;;;;;;11.85;5.30;;;4.00;99.90;;;;;;5098921;28;20367;-72
2021/01/06 00:46:31;;;;;;;12.18;5.60;;;4.00;99.90;;;;;;5102998;28;20622;-72
2021/01/06 00:49:01;;;;;;;12.43;5.35;;;4.00;99.90;;;;;;5104060;28;20071;-74
2021/01/06 00:51:28;;;;;;;11.00;5.32;;;4.00;99.90;;;;;;5094187;28;20151;-75
2021/01/06 00:53:54;;;;;;;9.15;4.65;;;4.00;99.90;;;;;;5100632;28;20043;-74
2021/01/06 00:56:33;;;;;;;11.52;5.57;;;3.90;99.90;;;;;;5121351;27;20063;-75
2021/01/06 00:58:59;;;;;;;10.18;5.30;;;3.80;99.90;;;;;;5097286;28;20052;-74
2021/01/06 01:01:27;;;;;;;9.73;5.10;;;3.90;99.90;;;;;;5089856;27;20079;-76
2021/01/06 01:03:53;;;;;;;11.95;6.40;;;4.10;99.90;;;;;;5090684;28;20131;-75
2021/01/06 01:06:28;;;;;;;10.00;5.10;;;3.80;99.90;;;;;;5089734;28;20582;-76
2021/01/06 01:08:55;;;;;;;11.75;5.78;;;3.90;99.90;;;;;;5093471;27;21003;-72
2021/01/06 01:11:22;;;;;;;13.50;6.35;;;3.90;99.90;;;;;;5088160;28;20544;-72
2021/01/06 01:13:53;;;;;;;10.57;5.25;;;4.10;99.90;;;;;;5087883;28;20052;-72
2021/01/06 01:16:21;;;;;;;13.52;5.97;;;3.90;99.90;;;;;;5092038;28;20055;-75
2021/01/06 01:18:48;;;;;;;15.30;6.55;;;4.00;99.90;;;;;;5088307;28;20138;-72
2021/01/06 01:21:18;;;;;;;11.93;6.28;;;4.00;99.90;;;;;;5091730;28;20130;-75
2021/01/06 01:23:44;;;;;;;12.27;6.20;;;3.90;99.90;;;;;;5090612;28;20134;-73
2021/01/06 01:26:11;;;;;;;11.30;5.80;;;3.90;99.90;;;;;;5089094;28;20130;-73
2021/01/06 01:28:37;;;;;;;12.80;6.80;;;3.90;99.90;;;;;;5098322;28;20066;-72
2021/01/06 01:31:04;;;;;;;11.30;5.75;;;3.90;99.90;;;;;;5087279;28;20048;-71
2021/01/06 01:33:31;;;;;;;9.30;5.85;;;4.10;99.90;;;;;;5087722;28;20039;-77
2021/01/06 01:35:58;;;;;;;13.00;6.00;;;4.00;99.90;;;;;;5088935;28;20220;-72
2021/01/06 01:38:28;;;;;;;12.15;5.85;;;3.90;99.90;;;;;;5089733;28;20133;-71
2021/01/06 01:41:02;;;;;;;12.00;5.85;;;3.90;99.90;;;;;;5088365;28;20079;-72
2021/01/06 01:43:29;;;;;;;16.08;6.32;;;4.00;99.90;;;;;;5089637;28;20058;-72
2021/01/06 01:45:55;;;;;;;15.25;5.75;;;4.10;99.90;;;;;;5088689;28;20156;-72
2021/01/06 01:48:30;;;;;;;13.95;6.65;;;4.00;99.90;;;;;;5090710;28;20066;-73
2021/01/06 01:51:01;;;;;;;13.05;6.50;;;3.90;99.90;;;;;;5097728;28;20071;-72
2021/01/06 01:53:34;;;;;;;12.82;6.25;;;4.00;99.90;;;;;;5093608;27;20036;-72
2021/01/06 01:56:01;;;;;;;13.02;6.10;;;3.90;99.90;;;;;;5091774;28;20079;-71
2021/01/06 01:58:29;;;;;;;11.57;6.45;;;4.00;99.90;;;;;;5088966;28;20511;-70
2021/01/06 02:00:56;;;;;;;12.98;6.38;;;3.90;99.90;;;;;;5091570;27;20048;-72
2021/01/06 02:03:36;;;;;;;15.85;6.32;;;3.90;99.90;;;;;;5088050;28;20143;-72
2021/01/06 02:06:07;;;;;;;10.00;5.85;;;4.00;99.90;;;;;;5090518;28;20170;-73
2021/01/06 02:08:40;;;;;;;9.95;5.80;;;4.10;99.90;;;;;;5090685;28;20079;-73
2021/01/06 02:11:33;;;;;;;14.02;6.63;;;3.90;99.90;;;;;;5092757;28;20082;-72
2021/01/06 02:14:31;;;;;;;14.68;6.25;;;4.00;99.90;;;;;;5083277;28;20041;-72
2021/01/06 02:17:10;;;;;;;15.00;6.63;;;4.00;99.90;;;;;;5088684;28;20051;-70
2021/01/06 02:19:39;;;;;;;12.18;6.20;;;4.00;99.90;;;;;;5091911;28;20070;-72
2021/01/06 02:22:09;;;;;;;14.85;6.47;;;3.90;99.90;;;;;;5090254;28;20062;-72
2021/01/06 02:24:35;;;;;;;13.02;6.30;;;4.00;99.90;;;;;;5089477;28;20142;-71
2021/01/06 02:27:03;;;;;;;17.60;7.35;;;3.90;99.90;;;;;;5094575;28;20138;-72
2021/01/06 02:29:31;;;;;;;13.80;6.43;;;4.00;99.90;;;;;;5089819;28;20040;-72
2021/01/06 02:31:58;;;;;;;11.73;6.45;;;3.90;99.90;;;;;;5091283;27;20044;-71
2021/01/06 02:34:25;;;;;;;14.85;7.20;;;3.90;99.90;;;;;;5090824;27;20167;-72
2021/01/06 02:36:53;;;;;;;14.13;7.07;;;3.90;99.90;;;;;;5090098;28;20086;-72
2021/01/06 02:39:20;;;;;;;14.02;7.03;;;4.10;99.90;;;;;;5091706;28;20980;-72
2021/01/06 02:41:47;;;;;;;13.77;7.28;;;3.90;99.90;;;;;;5100140;28;20083;-71
2021/01/06 02:44:15;;;;;;;11.70;6.57;;;4.00;99.90;;;;;;5090392;27;20059;-72
2021/01/06 02:46:42;;;;;;;13.88;6.35;;;4.00;99.90;;;;;;5092545;28;20075;-71
2021/01/06 02:49:09;;;;;;;11.18;6.15;;;3.90;99.90;;;;;;5098195;28;20052;-72
2021/01/06 02:51:47;;;;;;;18.08;6.75;;;3.90;99.90;;;;;;5091544;28;20475;-72
2021/01/06 02:54:22;;;;;;;12.80;6.53;;;3.90;99.90;;;;;;5089214;28;20130;-71
2021/01/06 02:56:53;;;;;;;12.70;6.43;;;4.10;99.90;;;;;;5091061;28;20060;-72
2021/01/06 02:59:23;;;;;;;12.70;6.65;;;3.90;99.90;;;;;;5089681;28;20051;-72
2021/01/06 03:01:52;;;;;;;13.02;7.10;;;4.00;99.90;;;;;;5090479;28;20083;-72
2021/01/06 03:04:19;;;;;;;12.05;6.15;;;3.90;99.90;;;;;;5091123;27;20363;-73
2021/01/06 03:06:59;;;;;;;14.65;6.63;;;4.00;99.90;;;;;;5092058;28;20044;-72
2021/01/06 03:09:32;;;;;;;15.93;6.93;;;4.00;99.90;;;;;;5091917;28;20071;-71
2021/01/06 03:12:11;;;;;;;11.80;6.35;;;3.90;99.90;;;;;;5090246;28;20044;-73
2021/01/06 03:14:39;;;;;;;13.88;6.75;;;3.90;99.90;;;;;;5089947;28;20061;-73
2021/01/06 03:17:07;;;;;;;14.50;6.60;;;3.90;99.90;;;;;;5089295;27;20545;-70
2021/01/06 03:19:37;;;;;;;13.95;7.05;;;3.90;99.90;;;;;;5088147;28;20479;-72
2021/01/06 03:22:07;;;;;;;11.32;6.53;;;3.90;99.90;;;;;;5097908;28;20155;-73
2021/01/06 03:24:39;;;;;;;12.02;6.15;;;4.00;99.90;;;;;;5090923;28;20123;-72
2021/01/06 03:27:07;;;;;;;11.80;5.93;;;4.10;99.90;;;;;;5090118;28;20075;-72
2021/01/06 03:29:36;;;;;;;13.10;6.45;;;4.10;99.90;;;;;;5099164;28;20079;-72
2021/01/06 03:32:09;;;;;;;11.57;6.18;;;3.90;99.90;;;;;;5090473;28;20044;-71
2021/01/06 03:34:43;;;;;;;11.77;6.43;;;3.80;99.90;;;;;;5088305;28;20159;-71
2021/01/06 03:37:12;;;;;;;11.90;6.00;;;3.90;99.90;;;;;;5090879;28;20051;-72
2021/01/06 03:40:02;;;;;;;12.55;6.50;;;3.90;99.90;;;;;;5098539;28;20097;-72
2021/01/06 03:42:29;;;;;;;11.82;6.40;;;3.90;99.90;;;;;;5093535;28;20051;-72
2021/01/06 03:44:55;;;;;;;11.95;6.18;;;3.90;99.90;;;;;;5090521;28;20052;-72
2021/01/06 03:47:31;;;;;;;11.98;6.40;;;3.90;99.90;;;;;;5089773;28;20079;-72
2021/01/06 03:50:22;;;;;;;12.07;5.93;;;3.80;99.90;;;;;;5091255;28;20384;-72
2021/01/06 03:52:58;;;;;;;11.38;5.68;;;4.10;99.90;;;;;;5091747;28;20127;-72
2021/01/06 03:55:28;;;;;;;11.27;6.07;;;4.10;99.90;;;;;;5092749;28;20539;-72
2021/01/06 03:58:32;;;;;;;14.10;6.28;;;3.90;99.90;;;;;;5089250;28;20048;-72
2021/01/06 04:01:14;;;;;;;11.50;6.20;;;3.90;99.90;;;;;;5091979;28;20112;-72
2021/01/06 04:03:46;;;;;;;11.57;6.03;;;4.00;99.90;;;;;;5103864;28;20075;-72
2021/01/06 04:06:14;;;;;;;12.93;5.82;;;4.10;99.90;;;;;;5099498;28;20048;-72
2021/01/06 04:08:49;;;;;;;12.82;6.25;;;4.10;99.90;;;;;;5105924;28;20119;-72
2021/01/06 04:11:21;;;;;;;11.52;6.03;;;3.90;99.90;;;;;;5107434;28;20056;-72
2021/01/06 04:13:48;;;;;;;14.23;6.45;;;3.80;99.90;;;;;;5107578;28;20043;-71
2021/01/06 04:16:15;;;;;;;9.25;5.32;;;3.90;99.90;;;;;;5103668;28;20044;-72
2021/01/06 04:18:43;;;;;;;13.73;6.18;;;3.90;99.90;;;;;;5109727;28;20052;-71
2021/01/06 04:21:11;;;;;;;10.43;5.68;;;4.10;99.90;;;;;;5105945;28;20130;-71
2021/01/06 04:23:38;;;;;;;11.68;5.97;;;3.90;99.90;;;;;;5105364;28;20494;-72
2021/01/06 04:26:04;;;;;;;12.13;5.95;;;3.90;99.90;;;;;;5101622;28;20135;-72
2021/01/06 04:28:35;;;;;;;10.43;5.03;;;3.90;99.90;;;;;;5108821;28;20485;-71
2021/01/06 04:31:04;;;;;;;12.88;6.60;;;3.90;99.90;;;;;;5109104;28;20047;-71
2021/01/06 04:33:30;;;;;;;10.80;5.57;;;3.80;99.90;;;;;;5115970;28;20071;-71
2021/01/06 04:35:59;;;;;;;12.10;5.55;;;3.90;99.90;;;;;;5103616;28;20544;-72
2021/01/06 04:38:34;;;;;;;9.73;5.35;;;3.90;99.90;;;;;;5104767;28;20483;-71
2021/01/06 04:41:32;;;;;;;10.82;5.50;;;3.90;99.90;;;;;;5112102;28;20100;-72
2021/01/06 04:44:04;;;;;;;11.15;5.50;;;3.90;99.90;;;;;;5081575;28;20044;-71
2021/01/06 04:46:53;;;;;;;8.18;4.93;;;3.90;99.90;;;;;;5105521;28;20079;-71
2021/01/06 04:49:19;;;;;;;7.07;4.32;;;4.10;99.90;;;;;;5109654;28;20147;-72
2021/01/06 04:52:13;;;;;;;10.65;5.65;;;3.90;99.90;;;;;;5105149;28;20100;-72
2021/01/06 04:54:55;;;;;;;8.98;5.15;;;4.00;99.90;;;;;;5107599;28;20071;-72
2021/01/06 04:57:47;;;;;;;9.30;4.85;;;4.20;99.90;;;;;;5115015;28;20128;-72
2021/01/06 05:00:16;;;;;;;10.02;5.25;;;3.80;99.90;;;;;;5110438;28;20047;-72
2021/01/06 05:03:14;;;;;;;11.70;5.82;;;3.70;99.90;;;;;;5102390;28;20085;-72
2021/01/06 05:06:13;;;;;;;10.45;4.88;;;4.00;99.90;;;;;;5099974;28;20470;-71
2021/01/06 05:08:44;;;;;;;10.85;4.88;;;4.20;99.90;;;;;;5112753;28;20048;-71
2021/01/06 05:11:42;;;;;;;9.65;4.80;;;4.10;99.90;;;;;;5102953;28;20552;-71
2021/01/06 05:14:22;;;;;;;9.35;4.63;;;4.00;99.90;;;;;;5097740;28;20142;-71
2021/01/06 05:16:53;;;;;;;10.35;5.10;;;4.10;99.90;;;;;;5110658;28;20058;-72
2021/01/06 05:19:26;;;;;;;11.52;5.43;;;3.90;99.90;;;;;;5110159;27;20051;-72
2021/01/06 05:21:53;;;;;;;9.23;5.75;;;3.70;99.90;;;;;;5108431;27;20138;-71
2021/01/06 05:24:33;;;;;;;11.52;5.53;;;3.90;99.90;;;;;;5113190;28;20555;-71
2021/01/06 05:27:19;;;;;;;11.10;5.22;;;3.90;99.90;;;;;;5110634;28;20458;-71
2021/01/06 05:29:55;;;;;;;9.93;5.90;;;3.90;99.90;;;;;;5113062;28;20407;-71
2021/01/06 05:32:25;;;;;;;9.82;5.10;;;3.90;99.90;;;;;;5105929;28;20048;-73
2021/01/06 05:34:57;;;;;;;11.32;6.00;;;3.80;99.90;;;;;;5106621;28;20566;-71
2021/01/06 05:37:24;;;;;;;10.77;5.75;;;4.00;99.90;;;;;;5114402;28;20130;-72
2021/01/06 05:39:53;;;;;;;10.95;5.82;;;3.90;99.90;;;;;;5104018;28;20047;-72
2021/01/06 05:42:25;;;;;;;12.80;6.50;;;3.90;99.90;;;;;;5109582;28;20094;-72
2021/01/06 05:44:55;;;;;;;14.70;6.45;;;4.00;99.90;;;;;;5104788;28;20053;-72
2021/01/06 05:47:36;;;;;;;11.23;6.30;;;3.60;99.90;;;;;;5107688;28;20134;-72
2021/01/06 05:50:11;;;;;;;12.00;6.28;;;3.80;99.90;;;;;;5102809;28;20072;-72
2021/01/06 05:52:38;;;;;;;12.40;5.65;;;3.80;99.90;;;;;;5111944;27;20134;-72
2021/01/06 05:55:06;;;;;;;11.57;6.18;;;3.90;99.90;;;;;;5109039;27;20097;-72
2021/01/06 05:57:45;;;;;;;12.40;6.43;;;4.00;99.90;;;;;;5108310;28;20448;-72
2021/01/06 06:00:25;;;;;;;11.30;6.18;;;4.00;99.90;;;;;;5108792;28;20051;-72
2021/01/06 06:03:13;;;;;;;11.95;5.97;;;4.10;99.90;;;;;;5107430;28;20101;-72
2021/01/06 06:06:00;;;;;;;11.93;5.93;;;4.10;99.90;;;;;;5108610;28;20136;-72
2021/01/06 06:08:39;;;;;;;13.45;6.03;;;4.10;99.90;;;;;;5110536;28;20607;-72
2021/01/06 06:11:14;;;;;;;13.32;5.70;;;4.00;99.90;;;;;;5104522;27;20047;-72
2021/01/06 06:13:56;;;;;;;11.30;5.97;;;4.20;99.90;;;;;;5107370;28;20040;-71
2021/01/06 06:16:39;;;;;;;12.23;6.00;;;3.90;99.90;;;;;;5104194;28;20059;-71
2021/01/06 06:19:06;;;;;;;12.98;6.65;;;4.10;99.90;;;;;;5111635;28;20052;-71
2021/01/06 06:21:59;;;;;;;12.73;6.43;;;3.90;99.90;;;;;;5103145;28;20131;-71
2021/01/06 06:24:38;;;;;;;16.67;6.13;;;4.10;99.90;;;;;;5094228;28;20079;-72
2021/01/06 06:27:35;;;;;;;11.48;5.88;;;4.00;99.90;;;;;;5108419;28;20048;-71
2021/01/06 06:30:10;;;;;;;11.93;5.38;;;4.00;99.90;;;;;;5112314;28;20097;-71
2021/01/06 06:32:43;;;;;;;10.02;5.47;;;4.10;99.90;;;;;;5110475;28;20071;-71
2021/01/06 06:35:24;;;;;;;11.38;5.47;;;3.90;99.90;;;;;;5110606;28;20044;-72
2021/01/06 06:37:56;;;;;;;13.02;6.03;;;4.10;99.90;;;;;;5107042;27;20127;-72
2021/01/06 06:40:24;;;;;;;14.10;6.55;;;3.90;99.90;;;;;;5109976;28;20051;-72
2021/01/06 06:43:00;;;;;;;16.67;6.75;;;3.90;99.90;;;;;;5109941;28;20127;-72
2021/01/06 06:45:39;;;;;;;14.65;6.30;;;4.10;99.90;;;;;;5108220;28;20051;-72
2021/01/06 06:48:12;;;;;;;10.98;5.95;;;4.20;99.90;;;;;;5112278;28;20070;-72
2021/01/06 06:50:58;;;;;;;10.40;5.88;;;3.90;99.90;;;;;;5110696;27;20364;-71
2021/01/06 06:53:32;;;;;;;11.65;5.32;;;3.90;99.90;;;;;;5106866;28;20406;-71
2021/01/06 06:56:10;;;;;;;13.38;6.25;;;3.90;99.90;;;;;;5099178;28;20043;-72
2021/01/06 06:58:45;;;;;;;12.05;5.70;;;3.90;99.90;;;;;;5112797;28;20435;-73
2021/01/06 07:01:16;;;;;;;11.82;5.68;;;3.70;99.90;;;;;;5107435;27;20039;-72
2021/01/06 07:03:53;;;;;;;12.45;6.50;;;3.70;99.90;;;;;;5107481;28;20428;-71
2021/01/06 07:06:19;;;;;;;13.95;6.10;;;3.70;99.90;;;;;;5101125;28;20040;-72
2021/01/06 07:08:49;;;;;;;12.35;5.40;;;3.80;99.90;;;;;;5102542;28;20087;-70
2021/01/06 07:11:26;;;;;;;16.08;5.82;;;4.10;99.90;;;;;;5104401;28;20083;-72
2021/01/06 07:14:15;;;;;;;11.18;5.35;;;3.60;99.90;;;;;;5107031;28;20079;-73
2021/01/06 07:16:53;;;;;;;9.38;4.95;;;3.60;99.90;;;;;;5104931;28;20079;-73
2021/01/06 07:19:24;;;;;;;12.88;6.28;;;3.80;99.90;;;;;;5107816;28;20055;-74
2021/01/06 07:22:08;;;;;;;13.52;6.20;;;3.80;99.90;;;;;;5108969;28;20440;-73
2021/01/06 07:24:34;;;;;;;10.73;5.50;;;3.80;99.90;;;;;;5103089;28;20401;-73
2021/01/06 07:27:03;;;;;;;14.00;5.75;;;3.90;99.90;;;;;;5108905;28;20040;-72
2021/01/06 07:29:44;;;;;;;11.73;5.75;;;3.80;99.90;;;;;;5110201;28;20108;-73
2021/01/06 07:32:11;;;;;;;11.10;5.63;;;3.80;99.90;;;;;;5098814;28;20152;-73
2021/01/06 07:34:47;;;;;;;13.10;6.22;;;3.70;99.90;;;;;;5111271;28;20088;-72
2021/01/06 07:37:37;;;;;;;10.25;5.30;;;3.70;99.90;;;;;;5107219;28;20055;-74
2021/01/06 07:40:15;;;;;;;11.20;5.23;;;3.70;99.90;;;;;;5106583;28;20502;-75
2021/01/06 07:42:46;;;;;;;12.73;6.00;;;3.80;99.90;;;;;;5108872;28;20351;-74
2021/01/06 07:45:15;;;;;;;9.50;5.20;;;3.80;99.90;;;;;;5093961;28;20083;-72
2021/01/06 07:47:58;;;;;;;12.45;5.82;;;4.10;99.90;;;;;;5105598;28;20055;-74
2021/01/06 07:50:25;;;;;;;11.00;5.40;;;4.00;99.90;;;;;;5110328;28;20043;-71
2021/01/06 07:52:57;;;;;;;12.02;5.68;;;3.60;99.90;;;;;;5105869;28;20135;-73
2021/01/06 07:56:00;;;;;;;11.90;5.85;;;3.90;99.90;;;;;;5105370;28;20071;-75
2021/01/06 07:58:40;;;;;;;11.82;5.63;;;3.80;99.90;;;;;;5105107;28;20047;-73
2021/01/06 08:01:36;;;;;;;10.70;5.38;;;3.90;99.90;;;;;;5103686;28;20051;-72
2021/01/06 08:04:32;;;;;;;12.32;5.78;;;3.90;99.90;;;;;;5110623;28;20044;-73
2021/01/06 08:07:08;;;;;;;12.18;6.07;;;3.80;99.90;;;;;;5110144;28;20079;-72
2021/01/06 08:09:42;;;;;;;12.73;6.45;;;3.90;99.90;;;;;;5102817;28;20043;-73
2021/01/06 08:12:33;;;;;;;9.10;5.22;;;4.00;99.90;;;;;;5107758;28;20143;-73
2021/01/06 08:15:17;;;;;;;10.75;5.35;;;3.90;99.90;;;;;;5107529;28;20091;-73
2021/01/06 08:18:05;;;;;;;9.98;5.07;;;3.90;99.90;;;;;;5111327;28;20086;-72
2021/01/06 08:20:55;;;;;;;13.52;5.60;;;4.00;99.90;;;;;;5113169;28;20071;-72
2021/01/06 08:23:27;;;;;;;12.10;6.13;;;4.10;99.90;;;;;;5111236;28;20077;-73
2021/01/06 08:25:59;;;;;;;9.35;5.72;;;4.00;99.90;;;;;;5109525;28;20093;-73
2021/01/06 08:28:28;;;;;;;12.80;5.97;;;4.20;99.90;;;;;;5110299;28;20104;-73
2021/01/06 08:31:10;;;;;;;11.10;5.50;;;4.00;99.90;;;;;;5101556;28;20459;-72
2021/01/06 08:33:47;;;;;;;11.18;5.53;;;3.90;99.90;;;;;;5112949;28;20093;-73
2021/01/06 08:36:22;;;;;;;14.23;6.13;;;4.00;99.90;;;;;;5114873;28;20101;-73
2021/01/06 08:39:03;;;;;;;11.68;6.05;;;3.90;99.90;;;;;;5105226;28;20453;-75
2021/01/06 08:41:30;;;;;;;11.60;5.47;;;3.90;99.90;;;;;;5108789;28;20047;-73
2021/01/06 08:43:58;;;;;;;12.65;6.43;;;4.00;99.90;;;;;;5110655;28;20530;-73
2021/01/06 08:46:28;;;;;;;13.50;6.47;;;4.10;99.90;;;;;;5108029;28;20062;-75
2021/01/06 08:49:09;;;;;;;17.02;6.70;;;4.10;99.90;;;;;;5111612;28;20043;-72
2021/01/06 08:51:36;;;;;;;;;;;4.30;99.90;;;;;;5111018;27;20075;-72
2021/01/06 08:54:27;;;;;;;12.10;6.07;;;4.10;99.90;;;;;;5105184;28;19920;-73
2021/01/06 08:57:04;;;;;;;18.38;6.63;;;4.10;99.90;;;;;;5110522;28;20553;-73
2021/01/06 08:59:35;;;;;;;13.48;6.70;;;4.20;99.90;;;;;;5111821;28;20126;-73
2021/01/06 09:02:10;;;;;;;16.95;7.00;;;4.00;99.90;;;;;;5107628;28;20538;-72
2021/01/06 09:04:42;;;;;;;11.35;5.80;;;4.10;99.90;;;;;;5113806;27;20044;-72
2021/01/06 09:07:15;;;;;;;14.73;6.97;;;4.00;99.90;;;;;;5110142;28;20075;-74
2021/01/06 09:10:01;;;;;;;13.57;6.82;;;4.00;99.90;;;;;;5108861;28;20475;-72
2021/01/06 09:12:49;;;;;;;14.98;7.30;;;4.30;99.90;;;;;;5109862;28;20040;-73
2021/01/06 09:16:01;;;;;;;15.05;6.75;;;4.20;99.90;;;;;;5119473;27;20048;-72
2021/01/06 09:18:50;;;;;;;12.75;6.05;;;4.10;99.90;;;;;;5111358;28;20455;-73
2021/01/06 09:21:22;;;;;;;17.63;6.40;;;4.20;99.90;;;;;;5104977;27;20094;-73
2021/01/06 09:23:52;;;;;;;14.48;7.18;;;4.20;99.90;;;;;;5108343;28;20083;-73
2021/01/06 09:26:22;;;;;;;12.80;6.30;;;4.20;99.90;;;;;;5109512;27;20238;-74
2021/01/06 09:29:14;;;;;;;13.30;6.30;;;4.20;99.90;;;;;;5110614;28;20164;-73
2021/01/06 09:31:45;;;;;;;13.70;6.40;;;4.20;99.90;;;;;;5104679;28;20085;-73
2021/01/06 09:34:18;;;;;;;13.23;6.57;;;4.20;99.90;;;;;;5108505;28;20077;-73
2021/01/06 09:36:47;;;;;;;13.13;6.88;;;4.20;99.90;;;;;;5106324;28;20211;-73
2021/01/06 09:39:18;;;;;;;12.90;6.53;;;4.40;99.90;;;;;;5111971;27;20482;-73
2021/01/06 09:41:45;;;;;;;12.57;6.20;;;4.40;99.90;;;;;;5107812;28;20462;-73
2021/01/06 09:44:12;;;;;;;13.40;6.35;;;4.40;99.90;;;;;;5108526;28;20119;-73
2021/01/06 09:46:54;;;;;;;12.40;5.78;;;4.30;99.90;;;;;;5105257;27;20075;-72
2021/01/06 09:49:26;;;;;;;14.57;7.00;;;4.40;99.90;;;;;;5105234;28;20112;-73
2021/01/06 09:51:56;;;;;;;15.38;6.53;;;4.40;99.90;;;;;;5100137;28;20088;-74
2021/01/06 09:54:24;;;;;;;12.13;6.22;;;4.60;99.90;;;;;;5110003;28;20067;-72
2021/01/06 09:56:51;;;;;;;16.58;7.43;;;4.50;99.90;;;;;;5108587;28;20048;-72
2021/01/06 09:59:28;;;;;;;14.48;6.80;;;4.50;99.90;;;;;;5108786;28;20079;-72
2021/01/06 10:01:58;;;;;;;14.88;6.53;;;4.50;99.90;;;;;;5101613;27;20171;-73
2021/01/06 10:04:27;;;;;;;12.95;6.88;;;4.60;99.90;;;;;;5098845;28;20104;-72
2021/01/06 10:07:15;;;;;;;11.50;5.75;;;4.60;99.90;;;;;;5102647;28;20487;-72
2021/01/06 10:09:45;;;;;;;12.63;6.50;;;4.60;99.90;;;;;;5099737;28;20054;-72
2021/01/06 10:12:38;;;;;;;13.83;6.60;;;4.60;99.90;;;;;;5093117;27;20059;-72
2021/01/06 10:15:27;;;;;;;14.27;6.72;;;4.60;99.90;;;;;;5117699;27;20129;-73
2021/01/06 10:18:17;;;;;;;17.65;7.35;;;4.70;99.90;;;;;;5102752;28;20116;-72
2021/01/06 10:21:02;;;;;;;;;;;4.50;99.90;;;;;;5103059;28;20726;-73
2021/01/06 10:24:00;;;;;;;15.88;6.35;;;4.80;99.90;;;;;;5101912;28;20022;-73
2021/01/06 10:26:32;;;;;;;17.38;6.93;;;4.70;99.90;;;;;;5098619;28;20076;-73
2021/01/06 10:29:21;;;;;;;15.75;6.68;;;5.00;99.90;;;;;;5102789;28;20091;-72
2021/01/06 10:32:10;;;;;;;15.05;7.28;;;4.90;99.90;;;;;;5102114;28;20116;-72
2021/01/06 10:34:48;;;;;;;13.45;6.20;;;4.90;99.90;;;;;;5101926;28;20494;-73
2021/01/06 10:37:25;;;;;;;13.38;7.05;;;5.00;99.90;;;;;;5098694;28;20521;-71
2021/01/06 10:39:53;;;;;;;14.50;6.50;;;5.00;99.90;;;;;;5101128;28;20052;-73
2021/01/06 10:42:22;;;;;;;14.48;7.07;;;5.20;99.90;;;;;;5091722;27;20075;-73
2021/01/06 10:45:06;;;;;;;12.15;6.70;;;4.90;99.90;;;;;;5105501;28;20044;-72
2021/01/06 10:47:32;;;;;;;13.40;7.05;;;5.00;99.90;;;;;;5102793;28;20131;-73
2021/01/06 10:50:00;;;;;;;11.68;6.03;;;4.90;99.90;;;;;;5103145;28;20079;-73
2021/01/06 10:52:51;;;;;;;12.27;5.95;;;5.00;99.90;;;;;;5106871;28;20140;-73
2021/01/06 10:55:41;;;;;;;10.75;5.82;;;5.10;99.90;;;;;;5106080;28;20477;-72
2021/01/06 10:58:20;;;;;;;17.13;7.13;;;5.10;99.90;;;;;;5098768;28;20769;-72
2021/01/06 11:01:08;;;;;;;14.85;6.50;;;5.30;99.90;;;;;;5088746;27;20118;-72
2021/01/06 11:03:40;;;;;;;11.90;5.88;;;5.00;99.90;;;;;;5092644;28;20047;-73
2021/01/06 11:06:16;;;;;;;12.35;6.75;;;5.00;99.90;;;;;;5099143;28;20478;-73
2021/01/06 11:09:07;;;;;;;12.43;5.82;;;5.00;99.90;;;;;;5098451;28;20043;-71
2021/01/06 11:11:49;;;;;;;32.05;13.80;;;5.00;99.90;;;;;;5095776;28;20067;-72
2021/01/06 11:14:47;;;;;;;12.38;6.57;;;5.00;99.90;;;;;;5103188;28;20055;-71
2021/01/06 11:17:16;;;;;;;11.50;6.63;;;5.00;99.90;;;;;;5097790;28;20040;-71
2021/01/06 11:19:55;;;;;;;13.20;6.53;;;5.20;99.90;;;;;;5097733;28;20040;-72
2021/01/06 11:22:35;;;;;;;14.63;6.40;;;5.10;99.90;;;;;;5105873;28;20081;-71
2021/01/06 11:25:22;;;;;;;10.30;5.80;;;5.10;99.90;;;;;;5094557;28;20059;-71
2021/01/06 11:28:00;;;;;;;13.50;6.28;;;5.10;99.90;;;;;;5104575;28;20057;-71
2021/01/06 11:30:32;;;;;;;12.55;5.93;;;5.20;99.90;;;;;;5100600;28;20055;-73
2021/01/06 11:33:14;;;;;;;12.90;6.43;;;5.20;99.90;;;;;;5098564;28;20051;-73
2021/01/06 11:35:46;;;;;;;12.45;6.22;;;5.20;99.90;;;;;;5101859;28;20051;-75
2021/01/06 11:38:50;;;;;;;13.30;5.32;;;5.20;99.90;;;;;;5102678;28;20104;-75
2021/01/06 11:41:26;;;;;;;11.90;5.43;;;5.30;99.90;;;;;;5061908;28;20144;-75
2021/01/06 11:44:20;;;;;;;13.70;5.90;;;5.10;99.90;;;;;;5103645;28;20058;-74
2021/01/06 11:46:52;;;;;;;12.50;6.07;;;5.20;99.90;;;;;;5099860;28;20063;-74
2021/01/06 11:49:28;;;;;;;13.88;5.35;;;5.30;99.90;;;;;;5099634;28;20044;-74
2021/01/06 11:52:25;;;;;;;14.98;6.25;;;5.10;99.90;;;;;;5102247;28;20462;-73
2021/01/06 11:55:24;;;;;;;13.57;6.20;;;5.10;99.90;;;;;;5106689;28;20039;-73
2021/01/06 11:58:13;;;;;;;10.77;5.53;;;5.10;99.90;;;;;;5098982;28;20055;-75
2021/01/06 12:00:48;;;;;;;10.23;5.28;;;5.10;99.90;;;;;;5105522;28;20056;-75
2021/01/06 12:03:28;;;;;;;11.85;5.68;;;5.10;99.90;;;;;;5107029;28;20408;-75
2021/01/06 12:06:14;;;;;;;13.07;5.88;;;5.10;99.90;;;;;;5094444;28;20059;-75
2021/01/06 12:08:59;;;;;;;11.65;5.38;;;5.00;99.90;;;;;;5100097;28;20056;-74
2021/01/06 12:11:31;;;;;;;11.73;5.32;;;5.00;99.90;;;;;;5102359;28;20479;-74
2021/01/06 12:14:44;;;;;;;13.80;5.85;;;5.10;99.90;;;;;;5106120;28;20062;-76
2021/01/06 12:17:14;;;;;;;12.07;5.82;;;5.10;99.90;;;;;;5049803;28;20542;-75
2021/01/06 12:20:03;;;;;;;11.50;6.05;;;5.20;99.90;;;;;;5059742;28;20091;-74
2021/01/06 12:22:29;;;;;;;11.20;5.95;;;5.20;99.90;;;;;;5086361;28;20371;-74
2021/01/06 12:25:23;;;;;;;10.80;5.50;;;5.20;99.90;;;;;;5101115;28;20134;-74
2021/01/06 12:28:20;;;;;;;13.95;5.93;;;5.10;99.90;;;;;;5105972;28;20064;-75
2021/01/06 12:31:03;;;;;;;10.73;5.25;;;5.20;99.90;;;;;;5104662;28;20461;-74
2021/01/06 12:33:43;;;;;;;10.45;5.00;;;5.30;99.90;;;;;;5112156;28;20459;-76
2021/01/06 12:36:24;;;;;;;9.10;4.68;;;5.20;99.90;;;;;;5106094;28;20046;-75
2021/01/06 12:38:53;;;;;;;10.43;5.03;;;5.20;99.90;;;;;;5109077;28;20064;-74
2021/01/06 12:41:23;;;;;;;9.50;5.15;;;5.30;99.90;;;;;;5108606;28;20995;-75
2021/01/06 12:43:59;;;;;;;9.18;4.43;;;5.30;99.90;;;;;;5107414;28;20503;-74
2021/01/06 12:46:35;;;;;;;7.85;4.25;;;5.30;99.90;;;;;;5097600;28;20055;-74
2021/01/06 12:49:10;;;;;;;7.80;4.38;;;5.30;99.90;;;;;;5111685;28;20046;-75
2021/01/06 12:52:02;;;;;;;7.28;4.25;;;5.20;99.90;;;;;;5109964;28;20048;-75
2021/01/06 12:54:38;;;;;;;9.07;4.90;;;5.20;99.90;;;;;;5106126;27;20051;-75
2021/01/06 12:57:11;;;;;;;9.00;4.10;;;5.30;99.90;;;;;;5110427;28;20040;-75
2021/01/06 12:59:57;;;;;;;8.32;4.47;;;5.20;99.90;;;;;;5112670;27;20470;-75
2021/01/06 13:02:23;;;;;;;6.43;3.97;;;5.40;99.90;;;;;;5105942;28;20097;-75
2021/01/06 13:04:51;;;;;;;10.20;5.05;;;5.50;99.90;;;;;;5110210;28;20055;-75
2021/01/06 13:07:31;;;;;;;7.82;4.30;;;5.50;99.90;;;;;;5112036;28;20414;-74
2021/01/06 13:10:22;;;;;;;9.23;4.72;;;5.40;99.90;;;;;;5111228;28;20054;-75
2021/01/06 13:13:02;;;;;;;7.93;4.25;;;5.40;99.90;;;;;;5097337;28;20044;-75
2021/01/06 13:15:42;;;;;;;8.32;4.72;;;5.50;99.90;;;;;;5108157;28;20418;-74
2021/01/06 13:18:15;;;;;;;11.07;4.45;;;5.40;99.90;;;;;;5109499;28;20044;-75
2021/01/06 13:21:01;;;;;;;7.88;4.45;;;5.30;99.90;;;;;;5109928;28;20091;-75
2021/01/06 13:23:41;;;;;;;8.40;4.63;;;5.50;99.90;;;;;;5113982;28;20048;-74
2021/01/06 13:26:16;;;;;;;6.55;4.20;;;5.40;99.90;;;;;;5108568;28;20047;-75
2021/01/06 13:29:05;;;;;;;6.63;4.25;;;5.40;99.90;;;;;;5108710;28;20044;-77
2021/01/06 13:31:57;;;;;;;7.88;4.13;;;5.50;99.90;;;;;;5108687;28;20048;-75
2021/01/06 13:34:46;;;;;;;9.57;4.50;;;5.40;99.90;;;;;;5105102;28;20044;-75